sensor_id;sensor_type;location;lat;lon;timestamp;temperature;humidity
75838;SHT30;64480;52.040;113.502;2023-03-31T00:02:05;15.12;31.30
75838;SHT30;64480;52.040;113.502;2023-03-31T00:05:15;15.63;30.51
75838;SHT30;64480;52.040;113.502;2023-03-31T00:08:20;15.94;30.15
75838;SHT30;64480;52.040;113.502;2023-03-31T00:11:23;16.41;29.33
75838;SHT30;64480;52.040;113.502;2023-03-31T00:14:27;16.65;28.64
75838;SHT30;64480;52.040;113.502;2023-03-31T00:17:30;16.84;28.24
75838;SHT30;64480;52.040;113.502;2023-03-31T00:20:35;17.35;27.79
75838;SHT30;64480;52.040;113.502;2023-03-31T00:23:42;17.29;27.51
75838;SHT30;64480;52.040;113.502;2023-03-31T00:26:46;16.94;28.79
75838;SHT30;64480;52.040;113.502;2023-03-31T00:29:50;17.66;27.36
75838;SHT30;64480;52.040;113.502;2023-03-31T00:32:54;18.05;27.18
75838;SHT30;64480;52.040;113.502;2023-03-31T00:35:58;18.31;26.38
75838;SHT30;64480;52.040;113.502;2023-03-31T00:39:05;18.07;26.37
75838;SHT30;64480;52.040;113.502;2023-03-31T00:42:11;17.69;26.69
75838;SHT30;64480;52.040;113.502;2023-03-31T00:48:19;16.29;28.81
75838;SHT30;64480;52.040;113.502;2023-03-31T00:51:28;15.91;29.60
75838;SHT30;64480;52.040;113.502;2023-03-31T00:54:35;15.29;30.47
75838;SHT30;64480;52.040;113.502;2023-03-31T00:57:40;14.25;31.85
75838;SHT30;64480;52.040;113.502;2023-03-31T01:00:48;13.28;33.83
75838;SHT30;64480;52.040;113.502;2023-03-31T01:03:53;12.11;35.68
75838;SHT30;64480;52.040;113.502;2023-03-31T01:07:07;11.30;37.31
75838;SHT30;64480;52.040;113.502;2023-03-31T01:10:11;11.02;38.47
75838;SHT30;64480;52.040;113.502;2023-03-31T01:13:16;10.81;38.41
75838;SHT30;64480;52.040;113.502;2023-03-31T01:16:19;10.75;39.27
75838;SHT30;64480;52.040;113.502;2023-03-31T01:19:39;10.67;38.51
75838;SHT30;64480;52.040;113.502;2023-03-31T01:30:11;10.74;39.57
75838;SHT30;64480;52.040;113.502;2023-03-31T01:37:09;11.11;38.05
75838;SHT30;64480;52.040;113.502;2023-03-31T01:53:59;11.77;34.90
75838;SHT30;64480;52.040;113.502;2023-03-31T01:57:16;11.91;34.30
75838;SHT30;64480;52.040;113.502;2023-03-31T02:00:28;12.05;33.66
75838;SHT30;64480;52.040;113.502;2023-03-31T02:03:42;12.12;33.20
75838;SHT30;64480;52.040;113.502;2023-03-31T02:06:54;12.12;34.34
75838;SHT30;64480;52.040;113.502;2023-03-31T02:10:02;12.24;34.39
75838;SHT30;64480;52.040;113.502;2023-03-31T02:13:08;12.33;33.15
75838;SHT30;64480;52.040;113.502;2023-03-31T02:16:21;12.39;32.58
75838;SHT30;64480;52.040;113.502;2023-03-31T02:19:30;12.49;33.14
75838;SHT30;64480;52.040;113.502;2023-03-31T02:22:37;12.61;33.21
75838;SHT30;64480;52.040;113.502;2023-03-31T02:29:06;12.93;32.18
75838;SHT30;64480;52.040;113.502;2023-03-31T02:32:31;13.01;31.88
75838;SHT30;64480;52.040;113.502;2023-03-31T02:35:38;13.12;31.49
75838;SHT30;64480;52.040;113.502;2023-03-31T02:39:03;13.28;32.18
75838;SHT30;64480;52.040;113.502;2023-03-31T02:42:08;13.26;30.68
75838;SHT30;64480;52.040;113.502;2023-03-31T02:45:49;13.32;31.61
75838;SHT30;64480;52.040;113.502;2023-03-31T02:48:56;13.40;31.54
75838;SHT30;64480;52.040;113.502;2023-03-31T02:55:45;13.60;30.80
75838;SHT30;64480;52.040;113.502;2023-03-31T02:59:06;13.74;30.37
75838;SHT30;64480;52.040;113.502;2023-03-31T03:02:24;13.84;30.32
75838;SHT30;64480;52.040;113.502;2023-03-31T03:06:15;13.95;29.56
75838;SHT30;64480;52.040;113.502;2023-03-31T03:12:59;14.22;30.48
75838;SHT30;64480;52.040;113.502;2023-03-31T03:16:40;14.38;28.70
75838;SHT30;64480;52.040;113.502;2023-03-31T03:19:51;14.43;28.72
75838;SHT30;64480;52.040;113.502;2023-03-31T03:22:55;14.46;27.97
75838;SHT30;64480;52.040;113.502;2023-03-31T03:26:00;14.50;28.03
75838;SHT30;64480;52.040;113.502;2023-03-31T03:29:08;14.49;28.02
75838;SHT30;64480;52.040;113.502;2023-03-31T03:32:19;14.55;27.49
75838;SHT30;64480;52.040;113.502;2023-03-31T03:35:26;14.62;27.66
75838;SHT30;64480;52.040;113.502;2023-03-31T03:38:31;14.74;28.09
75838;SHT30;64480;52.040;113.502;2023-03-31T03:41:37;14.84;27.29
75838;SHT30;64480;52.040;113.502;2023-03-31T03:44:41;14.95;27.72
75838;SHT30;64480;52.040;113.502;2023-03-31T03:47:44;15.11;27.35
75838;SHT30;64480;52.040;113.502;2023-03-31T03:50:48;15.22;26.88
75838;SHT30;64480;52.040;113.502;2023-03-31T03:53:55;15.34;27.36
75838;SHT30;64480;52.040;113.502;2023-03-31T03:56:58;15.43;26.64
75838;SHT30;64480;52.040;113.502;2023-03-31T04:00:02;15.53;26.54
75838;SHT30;64480;52.040;113.502;2023-03-31T04:03:12;15.63;26.78
75838;SHT30;64480;52.040;113.502;2023-03-31T04:06:19;15.77;25.72
75838;SHT30;64480;52.040;113.502;2023-03-31T04:09:23;15.87;25.81
75838;SHT30;64480;52.040;113.502;2023-03-31T04:12:26;15.97;26.08
75838;SHT30;64480;52.040;113.502;2023-03-31T04:15:32;16.05;26.00
75838;SHT30;64480;52.040;113.502;2023-03-31T04:18:36;16.10;25.18
75838;SHT30;64480;52.040;113.502;2023-03-31T04:21:53;16.10;24.62
75838;SHT30;64480;52.040;113.502;2023-03-31T04:25:09;16.05;24.97
75838;SHT30;64480;52.040;113.502;2023-03-31T04:28:18;16.12;25.25
75838;SHT30;64480;52.040;113.502;2023-03-31T04:31:22;16.33;25.34
75838;SHT30;64480;52.040;113.502;2023-03-31T04:34:28;16.55;24.94
75838;SHT30;64480;52.040;113.502;2023-03-31T04:37:37;16.69;24.11
75838;SHT30;64480;52.040;113.502;2023-03-31T04:40:41;16.77;23.91
75838;SHT30;64480;52.040;113.502;2023-03-31T04:43:53;16.81;24.37
75838;SHT30;64480;52.040;113.502;2023-03-31T04:47:10;16.95;23.58
75838;SHT30;64480;52.040;113.502;2023-03-31T04:50:27;17.03;23.82
75838;SHT30;64480;52.040;113.502;2023-03-31T04:53:41;17.03;23.47
75838;SHT30;64480;52.040;113.502;2023-03-31T04:56:57;17.11;23.88
75838;SHT30;64480;52.040;113.502;2023-03-31T05:00:04;17.08;22.97
75838;SHT30;64480;52.040;113.502;2023-03-31T05:03:13;17.10;24.05
75838;SHT30;64480;52.040;113.502;2023-03-31T05:06:18;17.21;23.19
75838;SHT30;64480;52.040;113.502;2023-03-31T05:09:21;17.36;22.91
75838;SHT30;64480;52.040;113.502;2023-03-31T05:12:41;17.48;22.97
75838;SHT30;64480;52.040;113.502;2023-03-31T05:15:44;17.52;23.42
75838;SHT30;64480;52.040;113.502;2023-03-31T05:18:49;17.66;22.48
75838;SHT30;64480;52.040;113.502;2023-03-31T05:21:53;17.80;22.58
75838;SHT30;64480;52.040;113.502;2023-03-31T05:24:56;17.89;23.57
75838;SHT30;64480;52.040;113.502;2023-03-31T05:28:00;17.98;22.75
75838;SHT30;64480;52.040;113.502;2023-03-31T05:31:06;18.04;22.94
75838;SHT30;64480;52.040;113.502;2023-03-31T05:34:10;18.17;22.07
75838;SHT30;64480;52.040;113.502;2023-03-31T05:37:13;18.14;22.04
75838;SHT30;64480;52.040;113.502;2023-03-31T05:40:17;18.05;22.47
75838;SHT30;64480;52.040;113.502;2023-03-31T05:43:20;18.10;22.64
75838;SHT30;64480;52.040;113.502;2023-03-31T05:46:24;18.17;22.04
75838;SHT30;64480;52.040;113.502;2023-03-31T05:49:28;18.31;22.64
75838;SHT30;64480;52.040;113.502;2023-03-31T05:52:32;18.65;21.22
75838;SHT30;64480;52.040;113.502;2023-03-31T05:55:36;18.83;21.02
75838;SHT30;64480;52.040;113.502;2023-03-31T05:58:40;18.91;21.17
75838;SHT30;64480;52.040;113.502;2023-03-31T06:01:44;19.07;21.21
75838;SHT30;64480;52.040;113.502;2023-03-31T06:04:47;19.15;20.89
75838;SHT30;64480;52.040;113.502;2023-03-31T06:07:52;19.07;20.43
75838;SHT30;64480;52.040;113.502;2023-03-31T06:10:56;19.10;20.86
75838;SHT30;64480;52.040;113.502;2023-03-31T06:14:26;19.17;20.31
75838;SHT30;64480;52.040;113.502;2023-03-31T06:17:31;19.28;20.10
75838;SHT30;64480;52.040;113.502;2023-03-31T06:20:35;19.39;20.14
75838;SHT30;64480;52.040;113.502;2023-03-31T06:23:38;19.44;19.71
75838;SHT30;64480;52.040;113.502;2023-03-31T06:26:42;19.61;18.98
75838;SHT30;64480;52.040;113.502;2023-03-31T06:29:45;19.73;18.97
75838;SHT30;64480;52.040;113.502;2023-03-31T06:32:49;19.89;18.26
75838;SHT30;64480;52.040;113.502;2023-03-31T06:35:55;20.34;18.46
75838;SHT30;64480;52.040;113.502;2023-03-31T06:38:59;20.91;17.37
75838;SHT30;64480;52.040;113.502;2023-03-31T06:42:03;21.27;17.05
75838;SHT30;64480;52.040;113.502;2023-03-31T06:45:14;21.39;17.58
75838;SHT30;64480;52.040;113.502;2023-03-31T06:48:18;21.27;16.58
75838;SHT30;64480;52.040;113.502;2023-03-31T06:51:22;20.94;16.33
75838;SHT30;64480;52.040;113.502;2023-03-31T06:54:28;20.65;16.60
75838;SHT30;64480;52.040;113.502;2023-03-31T06:57:32;20.42;17.20
75838;SHT30;64480;52.040;113.502;2023-03-31T07:00:36;20.45;17.17
75838;SHT30;64480;52.040;113.502;2023-03-31T07:03:39;20.66;16.06
75838;SHT30;64480;52.040;113.502;2023-03-31T07:06:43;20.77;15.65
75838;SHT30;64480;52.040;113.502;2023-03-31T07:09:46;20.75;16.56
75838;SHT30;64480;52.040;113.502;2023-03-31T07:12:50;20.83;15.56
75838;SHT30;64480;52.040;113.502;2023-03-31T07:15:54;20.99;15.08
75838;SHT30;64480;52.040;113.502;2023-03-31T07:18:57;21.07;14.51
75838;SHT30;64480;52.040;113.502;2023-03-31T07:22:01;21.12;14.31
75838;SHT30;64480;52.040;113.502;2023-03-31T07:25:05;21.11;15.46
75838;SHT30;64480;52.040;113.502;2023-03-31T07:28:08;21.01;13.49
75838;SHT30;64480;52.040;113.502;2023-03-31T07:31:13;21.12;13.68
75838;SHT30;64480;52.040;113.502;2023-03-31T07:34:16;21.32;13.99
75838;SHT30;64480;52.040;113.502;2023-03-31T07:37:25;21.56;13.46
75838;SHT30;64480;52.040;113.502;2023-03-31T07:40:29;21.71;13.33
75838;SHT30;64480;52.040;113.502;2023-03-31T07:43:33;21.63;14.07
75838;SHT30;64480;52.040;113.502;2023-03-31T07:46:36;21.66;13.59
75838;SHT30;64480;52.040;113.502;2023-03-31T07:49:40;21.71;13.38
75838;SHT30;64480;52.040;113.502;2023-03-31T07:52:45;21.73;12.87
75838;SHT30;64480;52.040;113.502;2023-03-31T07:55:49;21.76;13.14
75838;SHT30;64480;52.040;113.502;2023-03-31T07:58:52;21.76;12.92
75838;SHT30;64480;52.040;113.502;2023-03-31T08:01:59;21.69;12.85
75838;SHT30;64480;52.040;113.502;2023-03-31T08:05:04;21.44;12.52
75838;SHT30;64480;52.040;113.502;2023-03-31T08:08:08;21.14;12.37
75838;SHT30;64480;52.040;113.502;2023-03-31T08:11:11;20.94;13.18
75838;SHT30;64480;52.040;113.502;2023-03-31T08:14:15;20.91;13.26
75838;SHT30;64480;52.040;113.502;2023-03-31T08:17:35;21.06;12.93
75838;SHT30;64480;52.040;113.502;2023-03-31T08:20:39;20.97;13.24
75838;SHT30;64480;52.040;113.502;2023-03-31T08:23:42;21.00;13.77
75838;SHT30;64480;52.040;113.502;2023-03-31T08:26:45;21.01;13.28
75838;SHT30;64480;52.040;113.502;2023-03-31T08:29:49;21.06;13.25
75838;SHT30;64480;52.040;113.502;2023-03-31T08:32:52;21.20;13.24
75838;SHT30;64480;52.040;113.502;2023-03-31T08:35:56;21.31;13.24
75838;SHT30;64480;52.040;113.502;2023-03-31T08:38:59;21.42;12.70
75838;SHT30;64480;52.040;113.502;2023-03-31T08:45:33;21.17;12.82
75838;SHT30;64480;52.040;113.502;2023-03-31T08:48:45;20.84;13.85
75838;SHT30;64480;52.040;113.502;2023-03-31T08:51:58;19.79;16.58
75838;SHT30;64480;52.040;113.502;2023-03-31T08:55:12;18.93;17.85
75838;SHT30;64480;52.040;113.502;2023-03-31T09:05:42;17.49;19.25
75838;SHT30;64480;52.040;113.502;2023-03-31T09:09:01;17.15;20.02
75838;SHT30;64480;52.040;113.502;2023-03-31T09:12:10;16.88;20.60
75838;SHT30;64480;52.040;113.502;2023-03-31T09:18:40;16.33;20.89
75838;SHT30;64480;52.040;113.502;2023-03-31T09:21:54;16.08;22.05
75838;SHT30;64480;52.040;113.502;2023-03-31T09:28:43;15.77;22.75
75838;SHT30;64480;52.040;113.502;2023-03-31T09:32:01;15.60;22.89
75838;SHT30;64480;52.040;113.502;2023-03-31T09:35:25;15.46;23.29
75838;SHT30;64480;52.040;113.502;2023-03-31T09:38:29;15.40;23.25
75838;SHT30;64480;52.040;113.502;2023-03-31T09:41:33;15.40;23.16
75838;SHT30;64480;52.040;113.502;2023-03-31T09:44:48;15.43;23.68
75838;SHT30;64480;52.040;113.502;2023-03-31T09:47:57;15.42;23.51
75838;SHT30;64480;52.040;113.502;2023-03-31T09:51:26;15.48;23.75
75838;SHT30;64480;52.040;113.502;2023-03-31T09:57:38;15.55;23.32
75838;SHT30;64480;52.040;113.502;2023-03-31T10:00:56;15.50;23.52
75838;SHT30;64480;52.040;113.502;2023-03-31T10:04:00;15.40;23.66
75838;SHT30;64480;52.040;113.502;2023-03-31T10:07:10;15.34;24.27
75838;SHT30;64480;52.040;113.502;2023-03-31T10:10:30;15.27;24.45
75838;SHT30;64480;52.040;113.502;2023-03-31T10:13:46;15.32;24.50
75838;SHT30;64480;52.040;113.502;2023-03-31T10:20:42;15.18;24.88
75838;SHT30;64480;52.040;113.502;2023-03-31T10:23:45;14.88;25.83
75838;SHT30;64480;52.040;113.502;2023-03-31T10:26:51;14.57;26.97
75838;SHT30;64480;52.040;113.502;2023-03-31T10:29:57;14.28;27.86
75838;SHT30;64480;52.040;113.502;2023-03-31T10:33:15;14.04;28.89
75838;SHT30;64480;52.040;113.502;2023-03-31T10:36:27;13.70;30.22
75838;SHT30;64480;52.040;113.502;2023-03-31T10:39:31;13.49;31.00
75838;SHT30;64480;52.040;113.502;2023-03-31T10:42:35;13.28;31.56
75838;SHT30;64480;52.040;113.502;2023-03-31T10:45:58;13.01;32.45
75838;SHT30;64480;52.040;113.502;2023-03-31T10:49:38;12.70;33.10
75838;SHT30;64480;52.040;113.502;2023-03-31T10:52:47;12.45;33.61
75838;SHT30;64480;52.040;113.502;2023-03-31T10:56:09;12.28;33.79
75838;SHT30;64480;52.040;113.502;2023-03-31T11:05:55;11.74;35.71
75838;SHT30;64480;52.040;113.502;2023-03-31T11:12:35;11.40;37.25
75838;SHT30;64480;52.040;113.502;2023-03-31T11:16:07;11.28;38.19
75838;SHT30;64480;52.040;113.502;2023-03-31T11:25:51;10.90;39.68
75838;SHT30;64480;52.040;113.502;2023-03-31T11:32:37;10.68;40.28
75838;SHT30;64480;52.040;113.502;2023-03-31T11:43:02;10.43;41.19
75838;SHT30;64480;52.040;113.502;2023-03-31T11:49:31;10.22;41.80
75838;SHT30;64480;52.040;113.502;2023-03-31T11:52:57;10.09;41.97
75838;SHT30;64480;52.040;113.502;2023-03-31T11:56:07;9.90;42.53
75838;SHT30;64480;52.040;113.502;2023-03-31T11:59:15;9.75;42.99
75838;SHT30;64480;52.040;113.502;2023-03-31T12:06:02;9.43;43.94
75838;SHT30;64480;52.040;113.502;2023-03-31T12:09:24;9.35;44.46
75838;SHT30;64480;52.040;113.502;2023-03-31T12:12:32;9.23;44.51
75838;SHT30;64480;52.040;113.502;2023-03-31T12:15:40;9.11;44.56
75838;SHT30;64480;52.040;113.502;2023-03-31T12:19:10;9.04;44.48
75838;SHT30;64480;52.040;113.502;2023-03-31T12:26:02;8.85;44.56
75838;SHT30;64480;52.040;113.502;2023-03-31T12:29:11;8.71;44.91
75838;SHT30;64480;52.040;113.502;2023-03-31T12:32:25;8.60;45.17
75838;SHT30;64480;52.040;113.502;2023-03-31T12:45:39;7.84;45.53
75838;SHT30;64480;52.040;113.502;2023-03-31T12:52:17;7.47;46.40
75838;SHT30;64480;52.040;113.502;2023-03-31T12:55:58;7.28;46.77
75838;SHT30;64480;52.040;113.502;2023-03-31T12:59:18;7.09;47.24
75838;SHT30;64480;52.040;113.502;2023-03-31T13:02:26;6.98;47.46
75838;SHT30;64480;52.040;113.502;2023-03-31T13:12:27;6.50;48.59
75838;SHT30;64480;52.040;113.502;2023-03-31T13:15:59;6.35;48.99
75838;SHT30;64480;52.040;113.502;2023-03-31T13:19:03;6.19;49.30
75838;SHT30;64480;52.040;113.502;2023-03-31T13:22:33;6.08;49.07
75838;SHT30;64480;52.040;113.502;2023-03-31T13:32:22;5.86;48.25
75838;SHT30;64480;52.040;113.502;2023-03-31T13:35:31;5.74;47.98
75838;SHT30;64480;52.040;113.502;2023-03-31T13:39:07;5.64;47.15
75838;SHT30;64480;52.040;113.502;2023-03-31T13:49:38;5.45;46.85
75838;SHT30;64480;52.040;113.502;2023-03-31T13:59:39;5.40;46.07
75838;SHT30;64480;52.040;113.502;2023-03-31T14:06:34;5.27;45.51
75838;SHT30;64480;52.040;113.502;2023-03-31T14:09:44;5.18;45.08
75838;SHT30;64480;52.040;113.502;2023-03-31T14:13:17;5.08;44.86
75838;SHT30;64480;52.040;113.502;2023-03-31T14:16:26;4.95;45.44
75838;SHT30;64480;52.040;113.502;2023-03-31T14:37:33;4.44;45.28
75838;SHT30;64480;52.040;113.502;2023-03-31T14:40:48;4.42;45.61
75838;SHT30;64480;52.040;113.502;2023-03-31T14:44:03;4.35;45.85
75838;SHT30;64480;52.040;113.502;2023-03-31T14:47:32;4.27;45.39
75838;SHT30;64480;52.040;113.502;2023-03-31T14:50:44;4.18;45.06
75838;SHT30;64480;52.040;113.502;2023-03-31T14:53:57;4.08;44.99
75838;SHT30;64480;52.040;113.502;2023-03-31T14:57:00;3.91;45.03
75838;SHT30;64480;52.040;113.502;2023-03-31T15:00:07;3.83;45.09
75838;SHT30;64480;52.040;113.502;2023-03-31T15:03:14;3.73;45.23
75838;SHT30;64480;52.040;113.502;2023-03-31T15:06:19;3.58;45.49
75838;SHT30;64480;52.040;113.502;2023-03-31T15:09:29;3.48;45.31
75838;SHT30;64480;52.040;113.502;2023-03-31T15:12:35;3.46;44.92
75838;SHT30;64480;52.040;113.502;2023-03-31T15:15:40;3.40;44.70
75838;SHT30;64480;52.040;113.502;2023-03-31T15:18:43;3.34;44.65
75838;SHT30;64480;52.040;113.502;2023-03-31T15:22:01;3.28;44.77
75838;SHT30;64480;52.040;113.502;2023-03-31T15:25:04;3.28;44.71
75838;SHT30;64480;52.040;113.502;2023-03-31T15:28:13;3.25;44.50
75838;SHT30;64480;52.040;113.502;2023-03-31T15:31:19;3.24;44.47
75838;SHT30;64480;52.040;113.502;2023-03-31T15:34:41;3.17;44.80
75838;SHT30;64480;52.040;113.502;2023-03-31T15:37:45;3.09;44.48
75838;SHT30;64480;52.040;113.502;2023-03-31T15:40:54;3.04;44.60
75838;SHT30;64480;52.040;113.502;2023-03-31T15:44:34;2.94;44.97
75838;SHT30;64480;52.040;113.502;2023-03-31T15:47:51;2.89;44.35
75838;SHT30;64480;52.040;113.502;2023-03-31T15:51:04;2.77;44.93
75838;SHT30;64480;52.040;113.502;2023-03-31T15:54:34;2.70;44.77
75838;SHT30;64480;52.040;113.502;2023-03-31T15:57:43;2.66;44.85
75838;SHT30;64480;52.040;113.502;2023-03-31T16:00:53;2.55;45.24
75838;SHT30;64480;52.040;113.502;2023-03-31T16:03:57;2.42;45.57
75838;SHT30;64480;52.040;113.502;2023-03-31T16:07:13;2.32;45.78
75838;SHT30;64480;52.040;113.502;2023-03-31T16:10:20;2.21;46.11
75838;SHT30;64480;52.040;113.502;2023-03-31T16:13:25;2.13;46.26
75838;SHT30;64480;52.040;113.502;2023-03-31T16:16:29;2.04;46.52
75838;SHT30;64480;52.040;113.502;2023-03-31T16:19:47;1.91;46.42
75838;SHT30;64480;52.040;113.502;2023-03-31T16:22:53;1.83;46.32
75838;SHT30;64480;52.040;113.502;2023-03-31T16:25:58;1.72;45.68
75838;SHT30;64480;52.040;113.502;2023-03-31T16:29:02;1.66;45.41
75838;SHT30;64480;52.040;113.502;2023-03-31T16:32:25;1.62;44.35
75838;SHT30;64480;52.040;113.502;2023-03-31T16:35:34;1.51;44.09
75838;SHT30;64480;52.040;113.502;2023-03-31T16:38:38;1.46;44.03
75838;SHT30;64480;52.040;113.502;2023-03-31T16:41:42;1.45;44.32
75838;SHT30;64480;52.040;113.502;2023-03-31T16:44:46;1.32;44.11
75838;SHT30;64480;52.040;113.502;2023-03-31T16:48:09;1.34;44.85
75838;SHT30;64480;52.040;113.502;2023-03-31T16:51:18;1.32;44.65
75838;SHT30;64480;52.040;113.502;2023-03-31T16:54:22;1.31;44.71
75838;SHT30;64480;52.040;113.502;2023-03-31T16:57:25;1.14;43.92
75838;SHT30;64480;52.040;113.502;2023-03-31T17:00:33;0.98;44.55
75838;SHT30;64480;52.040;113.502;2023-03-31T17:03:38;0.94;44.79
75838;SHT30;64480;52.040;113.502;2023-03-31T17:06:43;0.94;44.75
75838;SHT30;64480;52.040;113.502;2023-03-31T17:09:47;0.94;45.29
75838;SHT30;64480;52.040;113.502;2023-03-31T17:12:50;0.77;45.62
75838;SHT30;64480;52.040;113.502;2023-03-31T17:15:53;0.66;45.94
75838;SHT30;64480;52.040;113.502;2023-03-31T17:19:14;0.52;45.91
75838;SHT30;64480;52.040;113.502;2023-03-31T17:22:18;0.41;46.11
75838;SHT30;64480;52.040;113.502;2023-03-31T17:25:22;0.37;46.15
75838;SHT30;64480;52.040;113.502;2023-03-31T17:28:25;0.32;45.98
75838;SHT30;64480;52.040;113.502;2023-03-31T17:31:29;0.26;46.13
75838;SHT30;64480;52.040;113.502;2023-03-31T17:34:33;0.22;46.33
75838;SHT30;64480;52.040;113.502;2023-03-31T17:37:37;0.21;46.28
75838;SHT30;64480;52.040;113.502;2023-03-31T17:40:40;0.14;46.81
75838;SHT30;64480;52.040;113.502;2023-03-31T17:43:46;0.14;45.93
75838;SHT30;64480;52.040;113.502;2023-03-31T17:46:50;0.07;46.41
75838;SHT30;64480;52.040;113.502;2023-03-31T17:49:54;0.03;46.63
75838;SHT30;64480;52.040;113.502;2023-03-31T17:52:57;-0.06;46.31
75838;SHT30;64480;52.040;113.502;2023-03-31T17:56:02;-0.13;46.47
75838;SHT30;64480;52.040;113.502;2023-03-31T17:59:06;-0.21;46.48
75838;SHT30;64480;52.040;113.502;2023-03-31T18:02:12;-0.24;46.66
75838;SHT30;64480;52.040;113.502;2023-03-31T18:05:18;-0.30;46.75
75838;SHT30;64480;52.040;113.502;2023-03-31T18:08:21;-0.34;46.50
75838;SHT30;64480;52.040;113.502;2023-03-31T18:11:24;-0.37;46.61
75838;SHT30;64480;52.040;113.502;2023-03-31T18:14:29;-0.42;46.69
75838;SHT30;64480;52.040;113.502;2023-03-31T18:17:32;-0.42;46.52
75838;SHT30;64480;52.040;113.502;2023-03-31T18:20:36;-0.48;46.79
75838;SHT30;64480;52.040;113.502;2023-03-31T18:23:40;-0.55;47.00
75838;SHT30;64480;52.040;113.502;2023-03-31T18:26:43;-0.58;47.07
75838;SHT30;64480;52.040;113.502;2023-03-31T18:29:46;-0.62;47.31
75838;SHT30;64480;52.040;113.502;2023-03-31T18:32:50;-0.68;47.09
75838;SHT30;64480;52.040;113.502;2023-03-31T18:35:55;-0.70;47.09
75838;SHT30;64480;52.040;113.502;2023-03-31T18:39:01;-0.72;46.85
75838;SHT30;64480;52.040;113.502;2023-03-31T18:42:05;-0.73;46.36
75838;SHT30;64480;52.040;113.502;2023-03-31T18:45:09;-0.80;46.17
75838;SHT30;64480;52.040;113.502;2023-03-31T18:48:12;-0.82;46.51
75838;SHT30;64480;52.040;113.502;2023-03-31T18:51:16;-0.90;47.10
75838;SHT30;64480;52.040;113.502;2023-03-31T18:54:20;-0.96;47.70
75838;SHT30;64480;52.040;113.502;2023-03-31T18:57:23;-1.00;47.90
75838;SHT30;64480;52.040;113.502;2023-03-31T19:00:27;-0.96;47.94
75838;SHT30;64480;52.040;113.502;2023-03-31T19:03:31;-0.93;47.91
75838;SHT30;64480;52.040;113.502;2023-03-31T19:06:35;-0.96;47.31
75838;SHT30;64480;52.040;113.502;2023-03-31T19:09:39;-1.00;47.20
75838;SHT30;64480;52.040;113.502;2023-03-31T19:12:46;-1.04;46.80
75838;SHT30;64480;52.040;113.502;2023-03-31T19:15:50;-1.10;47.39
75838;SHT30;64480;52.040;113.502;2023-03-31T19:18:54;-1.07;47.34
75838;SHT30;64480;52.040;113.502;2023-03-31T19:21:57;-1.13;47.16
75838;SHT30;64480;52.040;113.502;2023-03-31T19:25:00;-1.18;46.77
75838;SHT30;64480;52.040;113.502;2023-03-31T19:28:04;-1.21;47.32
75838;SHT30;64480;52.040;113.502;2023-03-31T19:31:09;-1.25;47.69
75838;SHT30;64480;52.040;113.502;2023-03-31T19:34:13;-1.24;47.36
75838;SHT30;64480;52.040;113.502;2023-03-31T19:37:18;-1.24;47.05
75838;SHT30;64480;52.040;113.502;2023-03-31T19:40:22;-1.31;46.73
75838;SHT30;64480;52.040;113.502;2023-03-31T19:43:25;-1.37;46.88
75838;SHT30;64480;52.040;113.502;2023-03-31T19:46:31;-1.44;46.98
75838;SHT30;64480;52.040;113.502;2023-03-31T19:49:35;-1.48;47.14
75838;SHT30;64480;52.040;113.502;2023-03-31T19:52:38;-1.52;47.41
75838;SHT30;64480;52.040;113.502;2023-03-31T19:55:42;-1.58;47.26
75838;SHT30;64480;52.040;113.502;2023-03-31T19:58:45;-1.63;46.66
75838;SHT30;64480;52.040;113.502;2023-03-31T20:01:50;-1.63;46.48
75838;SHT30;64480;52.040;113.502;2023-03-31T20:04:53;-1.63;46.58
75838;SHT30;64480;52.040;113.502;2023-03-31T20:07:56;-1.66;46.55
75838;SHT30;64480;52.040;113.502;2023-03-31T20:11:04;-1.75;46.35
75838;SHT30;64480;52.040;113.502;2023-03-31T20:14:08;-1.80;46.72
75838;SHT30;64480;52.040;113.502;2023-03-31T20:17:12;-1.79;47.19
75838;SHT30;64480;52.040;113.502;2023-03-31T20:20:15;-1.79;46.38
75838;SHT30;64480;52.040;113.502;2023-03-31T20:23:19;-1.77;45.90
75838;SHT30;64480;52.040;113.502;2023-03-31T20:26:25;-1.77;45.40
75838;SHT30;64480;52.040;113.502;2023-03-31T20:29:31;-1.80;45.50
75838;SHT30;64480;52.040;113.502;2023-03-31T20:32:34;-1.85;45.43
75838;SHT30;64480;52.040;113.502;2023-03-31T20:35:38;-1.82;45.74
75838;SHT30;64480;52.040;113.502;2023-03-31T20:38:43;-1.82;45.66
75838;SHT30;64480;52.040;113.502;2023-03-31T20:41:48;-1.79;45.40
75838;SHT30;64480;52.040;113.502;2023-03-31T20:44:52;-1.87;45.49
75838;SHT30;64480;52.040;113.502;2023-03-31T20:47:55;-1.86;45.89
75838;SHT30;64480;52.040;113.502;2023-03-31T20:50:58;-1.87;45.74
75838;SHT30;64480;52.040;113.502;2023-03-31T20:54:02;-1.79;45.96
75838;SHT30;64480;52.040;113.502;2023-03-31T20:57:06;-1.66;45.37
75838;SHT30;64480;52.040;113.502;2023-03-31T21:00:10;-1.69;45.26
75838;SHT30;64480;52.040;113.502;2023-03-31T21:03:13;-1.76;45.21
75838;SHT30;64480;52.040;113.502;2023-03-31T21:06:18;-1.68;45.23
75838;SHT30;64480;52.040;113.502;2023-03-31T21:09:21;-1.52;44.46
75838;SHT30;64480;52.040;113.502;2023-03-31T21:12:25;-1.62;43.59
75838;SHT30;64480;52.040;113.502;2023-03-31T21:15:29;-1.65;44.61
75838;SHT30;64480;52.040;113.502;2023-03-31T21:18:33;-1.72;44.85
75838;SHT30;64480;52.040;113.502;2023-03-31T21:21:39;-1.68;45.07
75838;SHT30;64480;52.040;113.502;2023-03-31T21:24:45;-1.62;44.15
75838;SHT30;64480;52.040;113.502;2023-03-31T21:27:48;-1.70;43.24
75838;SHT30;64480;52.040;113.502;2023-03-31T21:30:54;-1.69;43.19
75838;SHT30;64480;52.040;113.502;2023-03-31T21:33:58;-1.72;42.83
75838;SHT30;64480;52.040;113.502;2023-03-31T21:37:04;-1.82;42.62
75838;SHT30;64480;52.040;113.502;2023-03-31T21:40:08;-1.89;42.81
75838;SHT30;64480;52.040;113.502;2023-03-31T21:43:12;-1.89;42.11
75838;SHT30;64480;52.040;113.502;2023-03-31T21:46:21;-1.90;42.01
75838;SHT30;64480;52.040;113.502;2023-03-31T21:49:24;-2.00;41.63
75838;SHT30;64480;52.040;113.502;2023-03-31T21:52:28;-1.97;41.49
75838;SHT30;64480;52.040;113.502;2023-03-31T21:55:32;-1.94;41.94
75838;SHT30;64480;52.040;113.502;2023-03-31T21:58:36;-1.89;41.59
75838;SHT30;64480;52.040;113.502;2023-03-31T22:01:39;-1.94;41.59